createdAt,value
2018-07-03T00:01:20.818Z,98626.61
2018-07-03T00:03:50.034Z,98625.52
2018-07-03T00:06:19.206Z,98626.33
2018-07-03T00:08:48.417Z,98625.80
2018-07-03T00:11:17.717Z,98626.33
2018-07-03T00:13:46.913Z,98623.11
2018-07-03T00:16:21.306Z,98627.94
2018-07-03T00:18:50.508Z,98624.41
2018-07-03T00:21:19.733Z,98624.92
2018-07-03T00:23:48.953Z,98626.55
2018-07-03T00:26:18.292Z,98626.01
2018-07-03T00:28:47.499Z,98628.16
2018-07-03T00:31:16.700Z,98626.82
2018-07-03T00:33:45.860Z,98627.59
2018-07-03T00:36:15.061Z,98622.22
2018-07-03T00:38:44.287Z,98618.19
2018-07-03T00:41:13.510Z,98618.43
2018-07-03T00:43:42.736Z,98622.44
2018-07-03T00:46:11.905Z,98624.86
2018-07-03T00:48:42.721Z,98623.53
2018-07-03T00:51:11.887Z,98624.88
2018-07-03T00:53:41.088Z,98629.41
2018-07-03T00:56:10.284Z,98629.12
2018-07-03T00:58:39.511Z,98627.23
2018-07-03T01:01:08.701Z,98623.45
2018-07-03T01:03:37.887Z,98618.89
2018-07-03T01:06:07.172Z,98618.06
2018-07-03T01:08:36.422Z,98623.42
2018-07-03T01:11:05.686Z,98618.05
2018-07-03T01:13:38.481Z,98616.67
2018-07-03T01:16:07.905Z,98613.98
2018-07-03T01:18:37.102Z,98616.93
2018-07-03T01:21:06.514Z,98609.14
2018-07-03T01:23:35.749Z,98608.36
2018-07-03T01:26:05.285Z,98613.66
2018-07-03T01:28:34.467Z,98613.92
2018-07-03T01:31:03.730Z,98609.84
2018-07-03T01:33:32.940Z,98614.63
2018-07-03T01:36:02.190Z,98606.59
2018-07-03T01:38:31.373Z,98610.34
2018-07-03T01:41:00.604Z,98608.17
2018-07-03T01:43:29.808Z,98616.97
2018-07-03T01:45:59.029Z,98611.36
2018-07-03T01:48:28.265Z,98615.38
2018-07-03T01:50:57.495Z,98621.23
2018-07-03T01:53:27.472Z,98618.78
2018-07-03T01:55:56.726Z,98623.58
2018-07-03T01:58:26.301Z,98625.16
2018-07-03T02:00:55.495Z,98628.87
2018-07-03T02:03:24.643Z,98626.95
2018-07-03T02:05:53.846Z,98623.20
2018-07-03T02:08:23.047Z,98621.56
2018-07-03T02:10:52.250Z,98618.87
2018-07-03T02:13:21.453Z,98616.98
2018-07-03T02:15:50.637Z,98619.64
2018-07-03T02:18:19.850Z,98620.93
2018-07-03T02:20:49.058Z,98620.08
2018-07-03T02:23:18.268Z,98623.30
2018-07-03T02:25:47.501Z,98630.50
2018-07-03T02:28:16.705Z,98632.64
2018-07-03T02:30:45.906Z,98625.98
2018-07-03T02:33:15.382Z,98631.34
2018-07-03T02:38:18.317Z,98639.60
2018-07-03T02:40:47.529Z,98640.39
2018-07-03T02:43:16.840Z,98632.03
2018-07-03T02:45:46.903Z,98638.13
2018-07-03T02:48:16.117Z,98639.92
2018-07-03T02:50:45.430Z,98642.59
2018-07-03T02:53:14.614Z,98642.84
2018-07-03T02:55:43.844Z,98638.05
2018-07-03T02:58:13.041Z,98633.79
2018-07-03T03:00:42.226Z,98638.30
2018-07-03T03:03:11.412Z,98642.59
2018-07-03T03:05:40.637Z,98649.82
2018-07-03T03:08:09.914Z,98651.95
2018-07-03T03:10:39.093Z,98654.62
2018-07-03T03:13:08.450Z,98663.67
2018-07-03T03:15:37.660Z,98655.95
2018-07-03T03:18:06.936Z,98661.05
2018-07-03T03:20:36.123Z,98660.55
2018-07-03T03:23:05.946Z,98663.24
2018-07-03T03:25:35.320Z,98668.30
2018-07-03T03:28:04.536Z,98663.72
2018-07-03T03:30:33.732Z,98662.91
2018-07-03T03:33:03.685Z,98662.39
2018-07-03T03:35:33.205Z,98665.89
2018-07-03T03:38:02.397Z,98668.02
2018-07-03T03:40:31.654Z,98675.22
2018-07-03T03:43:00.868Z,98671.02
2018-07-03T03:45:30.073Z,98670.80
2018-07-03T03:47:59.421Z,98674.30
2018-07-03T03:50:28.600Z,98682.63
2018-07-03T03:52:57.792Z,98682.37
2018-07-03T03:55:27.033Z,98689.94
2018-07-03T03:57:56.225Z,98686.84
2018-07-03T04:00:25.502Z,98685.03
2018-07-03T04:02:54.732Z,98689.92
2018-07-03T04:05:23.952Z,98637.09
2018-07-03T04:07:53.457Z,98685.25
2018-07-03T04:10:22.939Z,98687.14
2018-07-03T04:12:52.117Z,98695.02
2018-07-03T04:15:21.375Z,98689.71
2018-07-03T04:17:50.584Z,98693.52
2018-07-03T04:20:19.794Z,98694.38
2018-07-03T04:22:48.989Z,98693.07
2018-07-03T04:25:18.253Z,98692.86
2018-07-03T04:27:47.429Z,98694.23
2018-07-03T04:30:16.669Z,98695.34
2018-07-03T04:32:45.886Z,98696.42
2018-07-03T04:35:15.109Z,98701.03
2018-07-03T04:37:44.279Z,98698.38
2018-07-03T04:40:13.557Z,98705.13
2018-07-03T04:42:43.158Z,98703.80
2018-07-03T04:45:12.372Z,98707.84
2018-07-03T04:47:41.609Z,98704.92
2018-07-03T04:50:10.769Z,98701.44
2018-07-03T04:52:39.989Z,98702.84
2018-07-03T04:55:09.302Z,98708.75
2018-07-03T04:57:51.190Z,98705.01
2018-07-03T05:00:20.748Z,98702.88
2018-07-03T05:02:49.933Z,98707.43
2018-07-03T05:05:19.113Z,98706.89
2018-07-03T05:07:48.285Z,98709.59
2018-07-03T05:10:18.044Z,98710.93
2018-07-03T05:12:47.256Z,98709.33
2018-07-03T05:15:17.061Z,98711.70
2018-07-03T05:17:46.313Z,98714.66
2018-07-03T05:20:15.612Z,98714.66
2018-07-03T05:22:44.890Z,98708.45
2018-07-03T05:25:14.064Z,98708.42
2018-07-03T05:27:43.269Z,98714.06
2018-07-03T05:30:12.474Z,98712.41
2018-07-03T05:32:41.726Z,98713.75
2018-07-03T05:35:11.878Z,98714.50
2018-07-03T05:37:41.977Z,98714.67
2018-07-03T05:40:11.170Z,98718.64
2018-07-03T05:42:40.395Z,98722.13
2018-07-03T05:45:09.654Z,98727.14
2018-07-03T05:47:38.807Z,98730.03
2018-07-03T05:50:08.139Z,98736.98
2018-07-03T05:52:37.203Z,98731.56
2018-07-03T05:55:06.603Z,98735.55
2018-07-03T05:57:35.820Z,98736.37
2018-07-03T06:00:05.529Z,98741.67
2018-07-03T06:02:34.693Z,98736.18
2018-07-03T06:05:04.146Z,98743.11
2018-07-03T06:07:33.462Z,98745.51
2018-07-03T06:10:02.685Z,98739.78
2018-07-03T06:12:31.828Z,98739.67
2018-07-03T06:15:01.172Z,98736.58
2018-07-03T06:17:30.361Z,98735.69
2018-07-03T06:19:59.483Z,98731.46
2018-07-03T06:22:28.729Z,98735.68
2018-07-03T06:24:57.879Z,98736.36
2018-07-03T06:27:27.314Z,98743.81
2018-07-03T06:29:59.099Z,98739.70
2018-07-03T06:32:30.720Z,98738.51
2018-07-03T06:35:00.040Z,98739.41
2018-07-03T06:37:29.218Z,98737.09
2018-07-03T06:39:59.042Z,98741.18
2018-07-03T06:42:32.128Z,98741.78
2018-07-03T06:45:03.109Z,98738.41
2018-07-03T06:47:32.150Z,98734.89
2018-07-03T06:50:01.278Z,98732.29
2018-07-03T06:52:30.424Z,98735.16
2018-07-03T06:54:59.556Z,98728.94
2018-07-03T06:57:28.695Z,98718.01
2018-07-03T06:59:59.683Z,98716.52
2018-07-03T07:02:28.856Z,98710.76
2018-07-03T07:04:57.994Z,98726.39
2018-07-03T07:07:27.134Z,98721.97
2018-07-03T07:09:56.703Z,98719.81
2018-07-03T07:12:26.156Z,98711.38
2018-07-03T07:14:55.338Z,98714.25
2018-07-03T07:17:24.509Z,98713.48
2018-07-03T07:19:53.679Z,98710.28
2018-07-03T07:22:23.003Z,98713.10
2018-07-03T07:24:52.159Z,98714.97
2018-07-03T07:27:21.356Z,98712.34
2018-07-03T07:29:50.506Z,98706.70
2018-07-03T07:32:19.665Z,98702.99
2018-07-03T07:34:48.807Z,98698.23
2018-07-03T07:37:26.395Z,98702.64
2018-07-03T07:39:56.318Z,98694.16
2018-07-03T07:42:25.501Z,98690.16
2018-07-03T07:44:54.657Z,98687.57
2018-07-03T07:47:23.816Z,98689.02
2018-07-03T07:49:52.998Z,98688.13
2018-07-03T07:52:22.157Z,98685.64
2018-07-03T07:54:51.359Z,98687.33
2018-07-03T07:57:20.574Z,98677.93
2018-07-03T07:59:49.848Z,98679.11
2018-07-03T08:02:19.013Z,98681.67
2018-07-03T08:04:48.173Z,98681.95
2018-07-03T08:07:17.394Z,98680.06
2018-07-03T08:09:46.628Z,98684.08
2018-07-03T08:12:15.785Z,98681.43
2018-07-03T08:14:45.013Z,98685.81
2018-07-03T08:17:14.163Z,98684.71
2018-07-03T08:19:43.374Z,98687.09
2018-07-03T08:22:12.497Z,98682.93
2018-07-03T08:24:41.632Z,98677.23
2018-07-03T08:27:11.168Z,98679.12
2018-07-03T08:29:40.290Z,98673.80
2018-07-03T08:32:09.427Z,98677.95
2018-07-03T08:34:38.543Z,98677.83
2018-07-03T08:37:07.852Z,98684.00
2018-07-03T08:39:36.953Z,98681.34
2018-07-03T08:42:06.244Z,98682.58
2018-07-03T08:44:35.392Z,98677.10
2018-07-03T08:47:04.607Z,98676.67
2018-07-03T08:49:33.752Z,98675.09
2018-07-03T08:52:03.004Z,98678.05
2018-07-03T08:54:32.081Z,98675.34
2018-07-03T08:57:01.197Z,98677.70
2018-07-03T08:59:30.455Z,98671.39
2018-07-03T09:01:59.765Z,98673.28
2018-07-03T09:04:29.060Z,98662.83
2018-07-03T09:06:58.222Z,98660.67
2018-07-03T09:09:27.409Z,98659.69
2018-07-03T09:11:56.524Z,98651.77
2018-07-03T09:14:25.677Z,98647.17
2018-07-03T09:16:54.814Z,98647.17
2018-07-03T09:19:24.336Z,98642.78
2018-07-03T09:21:53.548Z,98641.16
2018-07-03T09:24:22.655Z,98635.09
2018-07-03T09:26:51.781Z,98634.06
2018-07-03T09:29:21.297Z,98636.01
2018-07-03T09:31:50.494Z,98630.76
2018-07-03T09:34:19.616Z,98632.48
2018-07-03T09:36:48.797Z,98631.47
2018-07-03T09:39:17.981Z,98628.38
2018-07-03T09:41:47.185Z,98622.08
2018-07-03T09:44:16.327Z,98618.27
2018-07-03T09:46:45.576Z,98623.19
2018-07-03T09:49:14.772Z,98620.99
2018-07-03T09:51:43.924Z,98625.28
2018-07-03T09:54:13.025Z,98618.79
2018-07-03T09:56:42.157Z,98623.46
2018-07-03T09:59:11.596Z,98623.26
2018-07-03T10:01:40.749Z,98621.48
2018-07-03T10:04:09.888Z,98618.38
2018-07-03T10:06:39.071Z,98617.82
2018-07-03T10:09:10.048Z,98621.63
2018-07-03T10:11:39.186Z,98612.31
2018-07-03T10:14:08.935Z,98610.36
2018-07-03T10:16:38.129Z,98609.58
2018-07-03T10:19:07.605Z,98604.07
2018-07-03T10:21:36.812Z,98602.29
2018-07-03T10:24:06.031Z,98604.31
2018-07-03T10:26:35.205Z,98607.91
2018-07-03T10:29:04.429Z,98600.79
2018-07-03T10:31:33.667Z,98591.83
2018-07-03T10:34:02.808Z,98605.70
2018-07-03T10:36:31.962Z,98594.77
2018-07-03T10:39:01.100Z,98595.72
2018-07-03T10:41:30.257Z,98595.29
2018-07-03T10:43:59.417Z,98593.33
2018-07-03T10:46:28.642Z,98596.29
2018-07-03T10:48:57.812Z,98590.61
2018-07-03T10:51:27.329Z,98599.73
2018-07-03T10:53:56.479Z,98591.11
2018-07-03T10:56:25.619Z,98588.50
2018-07-03T10:58:54.774Z,98588.29
2018-07-03T11:01:23.905Z,98581.70
2018-07-03T11:03:53.041Z,98582.81
2018-07-03T11:06:22.199Z,98584.02
2018-07-03T11:08:51.337Z,98581.89
2018-07-03T11:11:20.534Z,98576.78
2018-07-03T11:13:49.756Z,98577.77
2018-07-03T11:16:18.893Z,98572.52
2018-07-03T11:18:48.065Z,98582.38
2018-07-03T11:21:17.205Z,98572.41
2018-07-03T11:23:46.418Z,98570.53
2018-07-03T11:26:16.077Z,98583.25
2018-07-03T11:28:46.135Z,98565.83
2018-07-03T11:31:15.320Z,98562.85
2018-07-03T11:33:44.565Z,98566.34
2018-07-03T11:36:13.876Z,98566.55
2018-07-03T11:38:43.070Z,98565.25
2018-07-03T11:41:12.246Z,98564.36
2018-07-03T11:43:41.424Z,98564.56
2018-07-03T11:46:10.621Z,98562.85
2018-07-03T11:48:39.822Z,98566.13
2018-07-03T11:51:09.221Z,98561.75
2018-07-03T11:53:38.448Z,98565.38
2018-07-03T11:56:07.561Z,98554.30
2018-07-03T11:58:36.707Z,98557.30
2018-07-03T12:01:05.939Z,98557.36
2018-07-03T12:03:35.085Z,98558.94
2018-07-03T12:06:04.294Z,98558.20
2018-07-03T12:08:33.481Z,98552.00
2018-07-03T12:11:02.717Z,98552.66
2018-07-03T12:13:32.123Z,98544.95
2018-07-03T12:16:01.512Z,98541.78
2018-07-03T12:18:37.517Z,98545.44
2018-07-03T12:21:06.788Z,98545.97
2018-07-03T12:23:36.068Z,98546.48
2018-07-03T12:26:05.352Z,98541.84
2018-07-03T12:28:34.571Z,98540.30
2018-07-03T12:31:04.782Z,98539.90
2018-07-03T12:33:33.926Z,98542.00
2018-07-03T12:36:03.314Z,98532.02
2018-07-03T12:38:32.440Z,98535.30
2018-07-03T12:41:01.589Z,98534.72
2018-07-03T12:43:30.741Z,98529.02
2018-07-03T12:45:59.912Z,98526.94
2018-07-03T12:48:29.599Z,98527.61
2018-07-03T12:50:58.739Z,98525.72
2018-07-03T12:53:27.933Z,98527.27
2018-07-03T12:55:57.143Z,98527.20
2018-07-03T12:58:26.329Z,98522.94
2018-07-03T13:00:55.592Z,98521.32
2018-07-03T13:03:24.750Z,98527.01
2018-07-03T13:05:53.944Z,98519.12
2018-07-03T13:08:23.163Z,98511.20
2018-07-03T13:10:52.301Z,98516.10
2018-07-03T13:13:21.454Z,98514.34
2018-07-03T13:15:50.678Z,98509.48
2018-07-03T13:18:21.988Z,98514.05
2018-07-03T13:20:52.511Z,98520.82
2018-07-03T13:23:22.928Z,98509.06
2018-07-03T13:25:52.214Z,98517.23
2018-07-03T13:28:21.427Z,98516.83
2018-07-03T13:30:50.609Z,98512.47
2018-07-03T13:33:19.791Z,98512.06
2018-07-03T13:35:48.919Z,98514.91
2018-07-03T13:38:18.098Z,98510.69
2018-07-03T13:40:47.270Z,98505.02
2018-07-03T13:43:16.453Z,98494.95
2018-07-03T13:45:45.619Z,98500.38
2018-07-03T13:48:14.879Z,98499.69
2018-07-03T13:50:43.956Z,98502.13
2018-07-03T13:53:13.183Z,98502.06
2018-07-03T13:55:42.344Z,98497.36
2018-07-03T13:58:11.503Z,98500.16
2018-07-03T14:00:40.674Z,98498.59
2018-07-03T14:03:09.830Z,98502.11
2018-07-03T14:05:38.984Z,98505.19
2018-07-03T14:08:08.136Z,98504.53
2018-07-03T14:10:37.277Z,98500.66
2018-07-03T14:13:06.620Z,98499.64
2018-07-03T14:15:35.879Z,98498.50
2018-07-03T14:18:05.216Z,98495.81
2018-07-03T14:20:34.765Z,98494.31
2018-07-03T14:23:04.429Z,98504.65
2018-07-03T14:25:33.603Z,98500.75
2018-07-03T14:28:02.732Z,98488.22
2018-07-03T14:30:31.880Z,98499.87
2018-07-03T14:33:01.057Z,98494.11
2018-07-03T14:35:30.181Z,98497.69
2018-07-03T14:37:59.339Z,98498.30
2018-07-03T14:40:28.858Z,98497.14
2018-07-03T14:42:58.009Z,98496.84
2018-07-03T14:45:27.168Z,98498.69
2018-07-03T14:47:56.341Z,98498.73
2018-07-03T14:50:25.457Z,98504.27
2018-07-03T14:52:54.810Z,98504.61
2018-07-03T14:55:23.963Z,98500.72
2018-07-03T14:57:53.163Z,98504.37
2018-07-03T15:00:22.411Z,98502.31
2018-07-03T15:02:51.605Z,98507.81
2018-07-03T15:05:20.806Z,98504.97
2018-07-03T15:07:50.013Z,98512.63
2018-07-03T15:10:19.169Z,98504.66
2018-07-03T15:12:48.341Z,98511.43
2018-07-03T15:15:18.067Z,98509.92
2018-07-03T15:17:47.222Z,98511.76
2018-07-03T15:20:16.423Z,98514.27
2018-07-03T15:22:45.561Z,98516.05
2018-07-03T15:25:14.710Z,98517.28
2018-07-03T15:27:43.840Z,98508.44
2018-07-03T15:30:16.480Z,98508.13
2018-07-03T15:32:45.610Z,98510.20
2018-07-03T15:35:15.320Z,98510.03
2018-07-03T15:37:44.861Z,98508.03
2018-07-03T15:40:14.139Z,98501.70
2018-07-03T15:42:43.354Z,98500.50
2018-07-03T15:45:14.030Z,98497.00
2018-07-03T15:47:43.287Z,98503.24
2018-07-03T15:50:13.318Z,98502.31
2018-07-03T15:52:42.489Z,98501.38
2018-07-03T15:55:11.666Z,98499.81
2018-07-03T15:57:40.812Z,98501.14
2018-07-03T16:00:12.025Z,98499.48
2018-07-03T16:02:51.362Z,98497.78
2018-07-03T16:05:31.710Z,98492.42
2018-07-03T16:08:06.481Z,98497.78
2018-07-03T16:10:35.652Z,98499.37
2018-07-03T16:13:04.978Z,98504.88
2018-07-03T16:15:34.354Z,98502.13
2018-07-03T16:18:03.562Z,98503.76
2018-07-03T16:20:41.280Z,98508.84
2018-07-03T16:23:10.844Z,98509.06
2018-07-03T16:25:40.068Z,98509.81
2018-07-03T16:28:09.205Z,98515.15
2018-07-03T16:30:38.429Z,98513.89
2018-07-03T16:33:07.852Z,98518.27
2018-07-03T16:35:37.002Z,98522.39
2018-07-03T16:38:06.322Z,98520.30
2018-07-03T16:40:35.512Z,98521.15
2018-07-03T16:43:04.759Z,98524.88
2018-07-03T16:45:34.022Z,98523.73
2018-07-03T16:48:03.142Z,98526.97
2018-07-03T16:50:32.296Z,98527.16
2018-07-03T16:53:01.503Z,98525.59
2018-07-03T16:55:30.653Z,98530.64
2018-07-03T16:57:59.836Z,98528.42
2018-07-03T17:00:29.580Z,98525.04
2018-07-03T17:02:58.847Z,98527.14
2018-07-03T17:05:28.143Z,98526.14
2018-07-03T17:07:57.346Z,98513.92
2018-07-03T17:10:26.529Z,98525.66
2018-07-03T17:12:55.711Z,98516.05
2018-07-03T17:15:25.062Z,98521.25
2018-07-03T17:17:54.334Z,98514.59
2018-07-03T17:20:23.632Z,98513.83
2018-07-03T17:22:52.856Z,98525.39
2018-07-03T17:25:22.020Z,98519.76
2018-07-03T17:27:51.148Z,98517.73
2018-07-03T17:30:20.364Z,98515.72
2018-07-03T17:32:49.541Z,98514.87
2018-07-03T17:35:18.693Z,98519.12
2018-07-03T17:37:47.908Z,98521.44
2018-07-03T17:40:29.182Z,98521.11
2018-07-03T17:43:08.366Z,98525.91
2018-07-03T17:45:48.642Z,98528.13
2018-07-03T17:48:18.940Z,98531.95
2018-07-03T17:50:48.066Z,98529.27
2018-07-03T17:53:17.256Z,98536.11
2018-07-03T17:55:46.459Z,98532.11
2018-07-03T17:58:15.649Z,98535.80
2018-07-03T18:00:45.310Z,98533.52
2018-07-03T18:03:14.588Z,98525.27
2018-07-03T18:05:44.499Z,98534.95
2018-07-03T18:08:13.857Z,98534.45
2018-07-03T18:10:43.050Z,98541.02
2018-07-03T18:13:12.262Z,98542.47
2018-07-03T18:15:41.395Z,98543.03
2018-07-03T18:18:10.658Z,98540.83
2018-07-03T18:20:39.861Z,98534.48
2018-07-03T18:23:09.226Z,98528.95
2018-07-03T18:25:38.542Z,98524.55
2018-07-03T18:28:07.876Z,98521.39
2018-07-03T18:30:37.177Z,98524.80
2018-07-03T18:33:06.558Z,98520.91
2018-07-03T18:35:35.827Z,98519.09
2018-07-03T18:38:05.205Z,98518.41
2018-07-03T18:40:34.628Z,98528.50
2018-07-03T18:43:03.938Z,98527.28
2018-07-03T18:45:33.311Z,98526.92
2018-07-03T18:48:02.622Z,98524.03
2018-07-03T18:50:31.879Z,98525.45
2018-07-03T18:53:01.102Z,98527.76
2018-07-03T18:55:30.402Z,98526.60
2018-07-03T18:57:59.681Z,98528.38
2018-07-03T19:00:28.912Z,98529.43
2018-07-03T19:02:58.036Z,98534.78
2018-07-03T19:05:27.174Z,98532.45
2018-07-03T19:07:56.366Z,98530.47
2018-07-03T19:10:25.473Z,98541.08
2018-07-03T19:12:54.611Z,98540.23
2018-07-03T19:15:23.986Z,98547.15
2018-07-03T19:17:53.141Z,98552.69
2018-07-03T19:20:22.281Z,98552.31
2018-07-03T19:22:51.415Z,98555.35
2018-07-03T19:25:20.738Z,98562.88
2018-07-03T19:27:49.914Z,98554.32
2018-07-03T19:30:19.138Z,98555.13
2018-07-03T19:32:48.319Z,98557.04
2018-07-03T19:35:18.031Z,98560.80
2018-07-03T19:37:47.178Z,98570.47
2018-07-03T19:40:16.398Z,98569.91
2018-07-03T19:42:56.546Z,98572.52
2018-07-03T19:45:25.696Z,98568.66
2018-07-03T19:47:54.856Z,98572.41
2018-07-03T19:50:24.069Z,98571.58
2018-07-03T19:52:53.317Z,98570.50
2018-07-03T19:55:22.540Z,98573.19
2018-07-03T19:57:51.728Z,98571.33
2018-07-03T20:00:20.927Z,98572.65
2018-07-03T20:02:50.159Z,98578.84
2018-07-03T20:05:19.368Z,98574.66
2018-07-03T20:07:48.673Z,98552.42
2018-07-03T20:10:17.846Z,98574.94
2018-07-03T20:12:47.029Z,98574.57
2018-07-03T20:15:16.217Z,98579.65
2018-07-03T20:17:45.353Z,98580.41
2018-07-03T20:20:17.693Z,98581.13
2018-07-03T20:22:46.894Z,98586.70
2018-07-03T20:25:16.074Z,98584.94
2018-07-03T20:27:45.239Z,98576.43
2018-07-03T20:30:14.432Z,98585.00
2018-07-03T20:32:43.614Z,98585.42
2018-07-03T20:35:12.897Z,98590.96
2018-07-03T20:37:53.387Z,98591.31
2018-07-03T20:40:23.451Z,98590.09
2018-07-03T20:42:54.558Z,98591.56
2018-07-03T20:45:23.780Z,98584.72
2018-07-03T20:47:53.089Z,98583.23
2018-07-03T20:50:22.227Z,98585.02
2018-07-03T20:52:51.416Z,98590.23
2018-07-03T20:55:20.608Z,98587.09
2018-07-03T20:57:49.817Z,98583.73
2018-07-03T21:00:18.976Z,98582.23
2018-07-03T21:02:48.156Z,98581.22
2018-07-03T21:05:17.337Z,98579.72
2018-07-03T21:07:46.485Z,98574.28
2018-07-03T21:10:15.638Z,98573.48
2018-07-03T21:12:44.921Z,98572.89
2018-07-03T21:15:14.053Z,98575.27
2018-07-03T21:17:43.233Z,98570.69
2018-07-03T21:20:12.598Z,98573.59
2018-07-03T21:22:41.712Z,98578.34
2018-07-03T21:25:11.331Z,98581.37
2018-07-03T21:27:40.716Z,98583.58
2018-07-03T21:30:09.855Z,98584.71
2018-07-03T21:32:39.063Z,98584.49
2018-07-03T21:35:08.437Z,98591.88
2018-07-03T21:37:37.596Z,98597.66
2018-07-03T21:40:06.788Z,98597.84
2018-07-03T21:42:36.349Z,98595.42
2018-07-03T21:45:05.797Z,98599.41
2018-07-03T21:47:34.964Z,98604.75
2018-07-03T21:50:04.457Z,98601.83
2018-07-03T21:52:33.616Z,98608.15
2018-07-03T21:55:02.972Z,98604.92
2018-07-03T21:57:32.224Z,98607.61
2018-07-03T22:00:01.384Z,98605.48
2018-07-03T22:02:30.579Z,98616.55
2018-07-03T22:04:59.741Z,98615.55
2018-07-03T22:07:28.991Z,98612.36
2018-07-03T22:09:58.170Z,98614.58
2018-07-03T22:12:27.298Z,98611.97
2018-07-03T22:14:56.430Z,98612.63
2018-07-03T22:17:25.620Z,98607.06
2018-07-03T22:19:54.778Z,98606.86
2018-07-03T22:22:23.983Z,98603.43
2018-07-03T22:24:53.202Z,98605.08
2018-07-03T22:27:22.654Z,98598.38
2018-07-03T22:29:51.868Z,98600.64
2018-07-03T22:32:21.063Z,98600.09
2018-07-03T22:34:51.797Z,98604.71
2018-07-03T22:37:20.971Z,98606.06
2018-07-03T22:39:50.275Z,98609.35
2018-07-03T22:42:19.322Z,98609.14
2018-07-03T22:44:48.432Z,98613.75
2018-07-03T22:47:17.857Z,98612.70
2018-07-03T22:49:46.990Z,98620.03
2018-07-03T22:52:16.120Z,98611.48
2018-07-03T22:54:45.349Z,98620.63
2018-07-03T22:57:14.549Z,98624.13
2018-07-03T22:59:44.012Z,98625.48
2018-07-03T23:02:13.224Z,98623.09
2018-07-03T23:04:42.374Z,98628.20
2018-07-03T23:07:11.704Z,98632.80
2018-07-03T23:09:40.977Z,98630.65
2018-07-03T23:12:14.277Z,98634.98
2018-07-03T23:14:43.418Z,98643.63
2018-07-03T23:17:12.560Z,98635.84
2018-07-03T23:19:41.713Z,98640.26
2018-07-03T23:22:10.882Z,98642.42
2018-07-03T23:24:40.051Z,98637.92
2018-07-03T23:27:09.190Z,98643.33
2018-07-03T23:29:41.759Z,98631.35
2018-07-03T23:32:11.289Z,98635.67
2018-07-03T23:34:41.034Z,98636.50
2018-07-03T23:37:10.828Z,98640.83
2018-07-03T23:39:40.000Z,98644.89
2018-07-03T23:42:09.246Z,98651.61
2018-07-03T23:44:38.434Z,98648.09
2018-07-03T23:47:18.791Z,98648.62
2018-07-03T23:49:59.051Z,98642.44
2018-07-03T23:52:39.265Z,98646.23
2018-07-03T23:55:19.579Z,98645.45
2018-07-03T23:57:59.968Z,98651.66
